Time;durP1;ratioP1;P1;durP2;ratioP2;P2;SDS_P1;SDS_P2;PMS_P1;PMS_P2;Temp;Humidity;BMP_temperature;BMP_pressure;BME280_temperature;BME280_humidity;BME280_pressure;Samples;Min_cycle;Max_cycle;Signal;HPM_P1;HPM_P2
2022/02/13 00:00:23;;;;;;;;;;;5.20;77.20;;;;;;5028622;28;89858;-43
2022/02/13 00:02:49;;;;;;;;;;;5.30;77.30;;;;;;5026011;28;87146;-42
2022/02/13 00:05:14;;;;;;;;;;;5.30;77.30;;;;;;5026255;28;88950;-43
2022/02/13 00:07:40;;;;;;;;;;;5.20;77.30;;;;;;5025797;28;89696;-43
2022/02/13 00:10:07;;;;;;;;;;;5.20;77.30;;;;;;5026050;28;87123;-44
2022/02/13 00:12:33;;;;;;;;;;;5.20;77.20;;;;;;5026013;28;89420;-46
2022/02/13 00:14:58;;;;;;;;;;;5.20;77.30;;;;;;5025862;28;87953;-43
2022/02/13 00:17:24;;;;;;;;;;;5.20;77.30;;;;;;5025920;28;87209;-42
2022/02/13 00:19:50;;;;;;;;;;;5.20;77.30;;;;;;5028656;28;89025;-46
2022/02/13 00:22:17;;;;;;;;;;;5.20;77.30;;;;;;5025156;28;87987;-44
2022/02/13 00:24:43;;;;;;;;;;;5.20;77.20;;;;;;5025695;28;89669;-46
2022/02/13 00:27:08;;;;;;;;;;;5.20;77.30;;;;;;5025298;28;89703;-43
2022/02/13 00:29:34;;;;;;;;;;;5.20;77.30;;;;;;5025664;28;87147;-43
2022/02/13 00:31:59;;;;;;;;;;;5.20;77.40;;;;;;5025784;28;89003;-43
2022/02/13 00:34:25;;;;;;;;;;;5.20;77.30;;;;;;5025280;28;89822;-44
2022/02/13 00:36:50;;;;;;;;;;;5.20;77.30;;;;;;5025457;28;87147;-43
2022/02/13 00:39:16;;;;;;;;;;;5.20;77.40;;;;;;5026030;28;88872;-45
2022/02/13 00:41:41;;;;;;;;;;;5.20;77.40;;;;;;5027945;28;89111;-43
2022/02/13 00:44:07;;;;;;;;;;;5.20;77.40;;;;;;5024772;28;88920;-44
2022/02/13 00:46:32;;;;;;;;;;;5.20;77.40;;;;;;5024391;28;90153;-42
2022/02/13 00:48:59;;;;;;;;;;;5.10;77.30;;;;;;5025580;28;86882;-42
2022/02/13 00:51:25;;;;;;;;;;;5.20;77.40;;;;;;5025492;28;88628;-45
2022/02/13 00:53:50;;;;;;;;;;;5.20;77.40;;;;;;5025052;28;88592;-42
2022/02/13 00:56:16;;;;;;;;;;;5.10;77.30;;;;;;5025218;28;86900;-44
2022/02/13 00:58:41;;;;;;;;;;;5.20;77.40;;;;;;5022667;28;90476;-46
2022/02/13 01:01:07;;;;;;;;;;;5.10;77.30;;;;;;5025122;28;89293;-46
2022/02/13 01:03:33;;;;;;;;;;;5.20;77.40;;;;;;5028832;28;86440;-42
2022/02/13 01:06:00;;;;;;;;;;;5.20;77.40;;;;;;5024851;28;89239;-43
2022/02/13 01:08:26;;;;;;;;;;;5.10;77.30;;;;;;5024909;28;87201;-43
2022/02/13 01:10:51;;;;;;;;;;;5.10;77.30;;;;;;5024433;28;88874;-44
2022/02/13 01:13:17;;;;;;;;;;;5.20;77.40;;;;;;5024664;28;89155;-41
2022/02/13 01:15:43;;;;;;;;;;;5.10;77.30;;;;;;5025141;28;87184;-43
2022/02/13 01:18:08;;;;;;;;;;;5.10;77.30;;;;;;5024817;28;88917;-43
2022/02/13 01:20:34;;;;;;;;;;;5.10;77.30;;;;;;5024728;28;89776;-43
2022/02/13 01:22:59;;;;;;;;;;;5.10;77.30;;;;;;5024798;28;87080;-42
2022/02/13 01:25:25;;;;;;;;;;;5.10;77.40;;;;;;5027395;28;88749;-46
2022/02/13 01:27:51;;;;;;;;;;;5.10;77.30;;;;;;5025293;28;86333;-45
2022/02/13 01:30:16;;;;;;;;;;;5.10;77.40;;;;;;5024590;28;87788;-45
2022/02/13 01:32:42;;;;;;;;;;;5.10;77.40;;;;;;5024456;28;89411;-46
2022/02/13 01:35:09;;;;;;;;;;;5.10;77.40;;;;;;5024098;28;88099;-43
2022/02/13 01:37:35;;;;;;;;;;;5.10;77.40;;;;;;5024503;28;90193;-45
2022/02/13 01:40:00;;;;;;;;;;;5.10;77.50;;;;;;5024340;28;89696;-44
2022/02/13 01:42:26;;;;;;;;;;;5.10;77.50;;;;;;5024106;28;87182;-46
2022/02/13 01:44:53;;;;;;;;;;;5.10;77.50;;;;;;5024227;28;89088;-42
2022/02/13 01:47:18;;;;;;;;;;;5.10;77.50;;;;;;5026912;28;89655;-43
2022/02/13 01:49:44;;;;;;;;;;;5.00;77.50;;;;;;5024500;28;89361;-44
2022/02/13 01:52:10;;;;;;;;;;;5.10;77.60;;;;;;5024610;28;88651;-43
2022/02/13 01:54:35;;;;;;;;;;;5.10;77.60;;;;;;5024372;28;87190;-45
2022/02/13 01:57:02;;;;;;;;;;;5.10;77.60;;;;;;5024463;28;89213;-43
2022/02/13 01:59:27;;;;;;;;;;;5.10;77.70;;;;;;5023037;28;89309;-42
2022/02/13 02:01:53;;;;;;;;;;;5.00;77.60;;;;;;5024357;28;87241;-44
2022/02/13 02:04:18;;;;;;;;;;;5.00;77.50;;;;;;5024158;28;89200;-41
2022/02/13 02:06:44;;;;;;;;;;;5.00;77.50;;;;;;5024097;28;89054;-42
2022/02/13 02:09:10;;;;;;;;;;;5.00;77.60;;;;;;5027177;28;87137;-45
2022/02/13 02:11:35;;;;;;;;;;;5.00;77.60;;;;;;5023699;28;89739;-42
2022/02/13 02:14:01;;;;;;;;;;;5.00;77.50;;;;;;5023945;28;87103;-45
2022/02/13 02:16:27;;;;;;;;;;;5.00;77.60;;;;;;5024857;28;86576;-43
2022/02/13 02:18:52;;;;;;;;;;;5.00;77.60;;;;;;5023599;28;89172;-43
2022/02/13 02:21:18;;;;;;;;;;;5.00;77.60;;;;;;5023987;28;87261;-42
2022/02/13 02:23:43;;;;;;;;;;;5.00;77.70;;;;;;5023191;28;88962;-44
2022/02/13 02:26:09;;;;;;;;;;;5.00;77.60;;;;;;5023592;28;89594;-46
2022/02/13 02:28:35;;;;;;;;;;;5.00;77.60;;;;;;5026732;28;87213;-45
2022/02/13 02:31:00;;;;;;;;;;;5.00;77.60;;;;;;5023507;28;89693;-47
2022/02/13 02:33:27;;;;;;;;;;;4.90;77.70;;;;;;5023784;28;87120;-46
2022/02/13 02:35:53;;;;;;;;;;;5.00;77.60;;;;;;5023839;28;89067;-43
2022/02/13 02:38:20;;;;;;;;;;;5.00;77.70;;;;;;5021978;28;90901;-42
2022/02/13 02:40:46;;;;;;;;;;;5.00;77.70;;;;;;5024281;28;86462;-43
2022/02/13 02:43:11;;;;;;;;;;;5.00;77.70;;;;;;5023166;28;88679;-43
2022/02/13 02:45:37;;;;;;;;;;;5.00;77.70;;;;;;5023358;28;89276;-43
2022/02/13 02:48:02;;;;;;;;;;;4.90;77.70;;;;;;5022809;28;88078;-45
2022/02/13 02:50:28;;;;;;;;;;;4.90;77.70;;;;;;5026089;28;89974;-42
2022/02/13 02:52:54;;;;;;;;;;;4.90;77.70;;;;;;5023576;28;87073;-46
2022/02/13 02:55:19;;;;;;;;;;;4.90;77.70;;;;;;5023584;28;87823;-41
2022/02/13 02:57:45;;;;;;;;;;;4.90;77.70;;;;;;5023090;28;89942;-43
2022/02/13 03:00:10;;;;;;;;;;;4.90;77.70;;;;;;5023170;28;87224;-43
2022/02/13 03:02:36;;;;;;;;;;;4.90;77.70;;;;;;5023420;28;89005;-44
2022/02/13 03:05:02;;;;;;;;;;;4.90;77.70;;;;;;5023683;28;88935;-44
2022/02/13 03:07:28;;;;;;;;;;;4.90;77.70;;;;;;5022265;28;87144;-44
2022/02/13 03:09:54;;;;;;;;;;;4.90;77.70;;;;;;5023398;28;88997;-46
2022/02/13 03:12:19;;;;;;;;;;;4.90;77.70;;;;;;5025236;28;89417;-47
2022/02/13 03:14:45;;;;;;;;;;;4.90;77.70;;;;;;5023014;28;89901;-45
2022/02/13 03:17:10;;;;;;;;;;;4.90;77.70;;;;;;5022893;28;89964;-42
2022/02/13 03:19:36;;;;;;;;;;;4.90;77.70;;;;;;5023143;28;87190;-44
2022/02/13 03:22:02;;;;;;;;;;;4.90;77.70;;;;;;5025946;28;88844;-45
2022/02/13 03:24:28;;;;;;;;;;;4.90;77.80;;;;;;5026243;28;88589;-45
2022/02/13 03:26:53;;;;;;;;;;;4.90;77.70;;;;;;5026743;28;87180;-46
2022/02/13 03:29:19;;;;;;;;;;;4.90;77.70;;;;;;5027158;28;88754;-44
2022/02/13 03:31:45;;;;;;;;;;;4.90;77.80;;;;;;5026135;28;89287;-44
2022/02/13 03:34:10;;;;;;;;;;;4.90;77.80;;;;;;5029613;28;87034;-45
2022/02/13 03:36:36;;;;;;;;;;;4.90;78.40;;;;;;5025530;28;90646;-42
2022/02/13 03:39:04;;;;;;;;;;;4.90;77.80;;;;;;5026460;28;87110;-43
2022/02/13 03:41:29;;;;;;;;;;;4.90;77.90;;;;;;5026580;28;89110;-44
2022/02/13 03:43:55;;;;;;;;;;;4.80;77.90;;;;;;5025355;28;89466;-42
2022/02/13 03:46:20;;;;;;;;;;;4.80;77.80;;;;;;5026301;28;87072;-44
2022/02/13 03:48:46;;;;;;;;;;;4.80;77.90;;;;;;5026428;28;87928;-43
2022/02/13 03:51:11;;;;;;;;;;;4.80;77.80;;;;;;5025932;28;89396;-44
2022/02/13 03:53:37;;;;;;;;;;;4.80;77.80;;;;;;5026954;28;86227;-43
2022/02/13 03:56:03;;;;;;;;;;;4.80;77.90;;;;;;5028739;28;87894;-46
2022/02/13 03:58:28;;;;;;;;;;;4.80;77.90;;;;;;5026037;28;87062;-44
2022/02/13 04:00:54;;;;;;;;;;;4.80;77.90;;;;;;5025548;28;89185;-45
2022/02/13 04:03:19;;;;;;;;;;;4.80;77.90;;;;;;5025760;28;89593;-42
2022/02/13 04:05:45;;;;;;;;;;;4.80;77.90;;;;;;5026171;28;87165;-43
2022/02/13 04:08:10;;;;;;;;;;;4.80;77.90;;;;;;5026116;28;88905;-44
2022/02/13 04:10:36;;;;;;;;;;;4.80;77.90;;;;;;5025776;28;89997;-44
2022/02/13 04:13:01;;;;;;;;;;;4.80;77.90;;;;;;5026057;28;87128;-44
2022/02/13 04:15:27;;;;;;;;;;;4.80;77.90;;;;;;5025866;28;88746;-44
2022/02/13 04:17:52;;;;;;;;;;;4.80;77.90;;;;;;5028780;28;88870;-42
2022/02/13 04:20:20;;;;;;;;;;;4.80;77.90;;;;;;5026095;28;88221;-45
2022/02/13 04:22:46;;;;;;;;;;;4.70;77.90;;;;;;5025547;28;89528;-42
2022/02/13 04:25:11;;;;;;;;;;;4.80;77.90;;;;;;5025295;28;87925;-44
2022/02/13 04:27:37;;;;;;;;;;;4.80;77.90;;;;;;5025646;28;89721;-44
2022/02/13 04:30:04;;;;;;;;;;;4.80;77.90;;;;;;5025224;28;89474;-43
2022/02/13 04:32:29;;;;;;;;;;;4.70;77.90;;;;;;5024391;28;87136;-45
2022/02/13 04:34:55;;;;;;;;;;;4.70;77.90;;;;;;5025651;28;89131;-46
2022/02/13 04:37:22;;;;;;;;;;;4.70;77.90;;;;;;5028049;28;89590;-43
2022/02/13 04:39:48;;;;;;;;;;;4.70;77.90;;;;;;5025643;28;87429;-45
2022/02/13 04:42:13;;;;;;;;;;;4.70;77.90;;;;;;5025687;28;88866;-46
2022/02/13 04:44:39;;;;;;;;;;;4.80;78.00;;;;;;5024981;28;87093;-45
2022/02/13 04:47:05;;;;;;;;;;;4.70;77.90;;;;;;5025704;28;88913;-45
2022/02/13 04:49:30;;;;;;;;;;;4.70;77.90;;;;;;5024398;28;90346;-43
2022/02/13 04:51:56;;;;;;;;;;;4.70;77.90;;;;;;5025119;28;86974;-43
2022/02/13 04:54:21;;;;;;;;;;;4.70;78.00;;;;;;5025661;28;88858;-43
2022/02/13 04:56:47;;;;;;;;;;;4.70;78.50;;;;;;5025111;28;89567;-42
2022/02/13 04:59:13;;;;;;;;;;;4.70;78.00;;;;;;5028241;28;87116;-45
2022/02/13 05:01:38;;;;;;;;;;;4.70;77.90;;;;;;5024922;28;89555;-44
2022/02/13 05:04:04;;;;;;;;;;;4.70;77.90;;;;;;5025265;28;87197;-45
2022/02/13 05:06:30;;;;;;;;;;;4.70;78.00;;;;;;5025506;28;88828;-43
2022/02/13 05:08:56;;;;;;;;;;;4.70;78.10;;;;;;5024927;28;89642;-45
2022/02/13 05:11:21;;;;;;;;;;;4.70;78.10;;;;;;5025047;28;87136;-44
2022/02/13 05:13:47;;;;;;;;;;;4.70;78.10;;;;;;5024552;28;88796;-44
2022/02/13 05:16:13;;;;;;;;;;;4.70;78.10;;;;;;5024546;28;89278;-44
2022/02/13 05:18:38;;;;;;;;;;;4.70;78.10;;;;;;5025199;28;87250;-43
2022/02/13 05:21:04;;;;;;;;;;;4.70;78.10;;;;;;5027507;28;89415;-44
2022/02/13 05:23:29;;;;;;;;;;;4.70;78.10;;;;;;5025030;28;87144;-44
2022/02/13 05:25:55;;;;;;;;;;;4.70;78.10;;;;;;5024836;28;88310;-45
2022/02/13 05:28:20;;;;;;;;;;;4.70;78.10;;;;;;5024499;28;89575;-45
2022/02/13 05:30:46;;;;;;;;;;;4.70;78.10;;;;;;5025533;28;86378;-43
2022/02/13 05:33:11;;;;;;;;;;;4.70;78.10;;;;;;5024673;28;88309;-45
2022/02/13 05:35:37;;;;;;;;;;;4.60;78.10;;;;;;5024452;28;89647;-44
2022/02/13 05:38:02;;;;;;;;;;;4.60;78.10;;;;;;5023892;28;88127;-46
2022/02/13 05:40:28;;;;;;;;;;;4.60;78.10;;;;;;5024660;28;90302;-46
2022/02/13 05:42:54;;;;;;;;;;;4.60;78.10;;;;;;5026558;28;89955;-45
2022/02/13 05:45:19;;;;;;;;;;;4.60;78.10;;;;;;5024283;28;89100;-44
2022/02/13 05:47:46;;;;;;;;;;;4.60;78.10;;;;;;5024205;28;89239;-41
2022/02/13 05:50:12;;;;;;;;;;;4.60;78.10;;;;;;5024578;28;87167;-46
2022/02/13 05:52:38;;;;;;;;;;;4.60;78.10;;;;;;5024414;28;88939;-46
2022/02/13 05:55:04;;;;;;;;;;;4.60;78.10;;;;;;5024448;28;89104;-44
2022/02/13 05:57:29;;;;;;;;;;;4.60;78.10;;;;;;5024392;28;87156;-44
2022/02/13 05:59:55;;;;;;;;;;;4.60;78.10;;;;;;5024029;28;88975;-42
2022/02/13 06:02:20;;;;;;;;;;;4.60;78.10;;;;;;5023354;28;90659;-44
2022/02/13 06:04:46;;;;;;;;;;;4.60;78.10;;;;;;5027352;28;87112;-43
2022/02/13 06:07:11;;;;;;;;;;;4.60;78.20;;;;;;5024190;28;87922;-44
2022/02/13 06:09:37;;;;;;;;;;;4.60;78.20;;;;;;5024165;28;87229;-45
2022/02/13 06:12:03;;;;;;;;;;;4.60;78.20;;;;;;5024192;28;88728;-44
2022/02/13 06:14:28;;;;;;;;;;;4.60;78.20;;;;;;5023602;28;90065;-44
2022/02/13 06:16:55;;;;;;;;;;;4.60;78.10;;;;;;5023892;28;87200;-45
2022/02/13 06:19:21;;;;;;;;;;;4.60;78.10;;;;;;5024474;28;88887;-44
2022/02/13 06:21:46;;;;;;;;;;;4.60;78.10;;;;;;5023790;28;89666;-43
2022/02/13 06:24:12;;;;;;;;;;;4.60;78.10;;;;;;5023891;28;87222;-44
2022/02/13 06:26:39;;;;;;;;;;;4.60;78.10;;;;;;5025871;28;88689;-45
2022/02/13 06:29:05;;;;;;;;;;;4.60;78.00;;;;;;5023729;28;87160;-44
2022/02/13 06:31:31;;;;;;;;;;;4.60;78.00;;;;;;5024049;28;88147;-45
2022/02/13 06:33:56;;;;;;;;;;;4.60;78.00;;;;;;5023727;28;90212;-46
2022/02/13 06:36:22;;;;;;;;;;;4.60;78.00;;;;;;5023905;28;87176;-46
2022/02/13 06:38:48;;;;;;;;;;;4.50;78.00;;;;;;5023851;28;89036;-45
2022/02/13 06:41:13;;;;;;;;;;;4.50;78.00;;;;;;5023393;28;89499;-43
2022/02/13 06:43:39;;;;;;;;;;;4.50;78.10;;;;;;5023546;28;86527;-44
2022/02/13 06:46:04;;;;;;;;;;;4.50;78.00;;;;;;5026075;28;88368;-45
2022/02/13 06:48:31;;;;;;;;;;;4.50;78.10;;;;;;5023687;28;87046;-44
2022/02/13 06:50:57;;;;;;;;;;;4.50;78.00;;;;;;5022879;28;89046;-45
2022/02/13 06:53:23;;;;;;;;;;;4.50;78.00;;;;;;5023105;28;89499;-46
2022/02/13 06:55:49;;;;;;;;;;;4.60;78.00;;;;;;5022752;28;87095;-45
2022/02/13 06:58:14;;;;;;;;;;;4.50;78.00;;;;;;5023384;28;88990;-45
2022/02/13 07:00:40;;;;;;;;;;;4.50;78.10;;;;;;5022979;28;89473;-43
2022/02/13 07:03:07;;;;;;;;;;;4.50;77.90;;;;;;5023225;28;87115;-44
2022/02/13 07:05:32;;;;;;;;;;;4.50;77.90;;;;;;5023419;28;88880;-46
2022/02/13 07:07:58;;;;;;;;;;;4.50;77.90;;;;;;5026376;28;88814;-46
2022/02/13 07:10:24;;;;;;;;;;;4.50;77.90;;;;;;5023378;28;88229;-45
2022/02/13 07:12:49;;;;;;;;;;;4.50;77.80;;;;;;5022855;28;89521;-44
2022/02/13 07:15:15;;;;;;;;;;;4.50;77.90;;;;;;5022302;28;88108;-45
2022/02/13 07:17:41;;;;;;;;;;;4.50;77.80;;;;;;5023271;28;89994;-44
2022/02/13 07:20:07;;;;;;;;;;;4.50;77.90;;;;;;5022773;28;88781;-43
2022/02/13 07:22:33;;;;;;;;;;;4.50;77.90;;;;;;5023256;28;87100;-46
2022/02/13 07:24:58;;;;;;;;;;;4.50;77.80;;;;;;5023157;28;88496;-43
2022/02/13 07:27:24;;;;;;;;;;;4.50;77.80;;;;;;5022744;28;89965;-44
2022/02/13 07:29:49;;;;;;;;;;;4.50;77.90;;;;;;5025780;28;87199;-46
2022/02/13 07:32:15;;;;;;;;;;;4.50;77.80;;;;;;5023093;28;88666;-47
2022/02/13 07:34:40;;;;;;;;;;;4.50;77.80;;;;;;5022975;28;87083;-45
2022/02/13 07:37:06;;;;;;;;;;;4.50;77.80;;;;;;5023084;28;89252;-42
2022/02/13 07:39:32;;;;;;;;;;;4.50;77.70;;;;;;5021830;28;90370;-42
2022/02/13 07:41:58;;;;;;;;;;;4.50;77.70;;;;;;5023015;28;87222;-42
2022/02/13 07:44:24;;;;;;;;;;;4.50;77.70;;;;;;5022374;28;88835;-44
2022/02/13 07:46:50;;;;;;;;;;;4.50;77.80;;;;;;5022503;28;89549;-46
2022/02/13 07:49:16;;;;;;;;;;;4.50;77.80;;;;;;5022838;28;87084;-43
2022/02/13 07:51:41;;;;;;;;;;;4.50;77.80;;;;;;5025369;28;88795;-46
2022/02/13 07:54:07;;;;;;;;;;;4.50;77.70;;;;;;5022742;28;87148;-45
2022/02/13 07:56:32;;;;;;;;;;;4.50;77.80;;;;;;5023321;28;88981;-45
2022/02/13 07:58:58;;;;;;;;;;;4.50;77.70;;;;;;5022170;28;89588;-45
2022/02/13 08:01:24;;;;;;;;;;;4.50;77.80;;;;;;5022640;28;87068;-46
2022/02/13 08:03:50;;;;;;;;;;;4.50;77.70;;;;;;5021996;28;89196;-43
2022/02/13 08:06:17;;;;;;;;;;;4.50;77.80;;;;;;5022304;28;89496;-44
2022/02/13 08:08:43;;;;;;;;;;;4.50;77.60;;;;;;5026208;28;87116;-44
2022/02/13 08:11:08;;;;;;;;;;;4.50;77.60;;;;;;5025894;28;88447;-47
2022/02/13 08:13:34;;;;;;;;;;;4.50;77.60;;;;;;5028259;28;89395;-43
2022/02/13 08:16:00;;;;;;;;;;;4.50;77.70;;;;;;5026139;28;87305;-44
2022/02/13 08:18:26;;;;;;;;;;;4.50;77.70;;;;;;5025433;28;89348;-43
2022/02/13 08:20:55;;;;;;;;;;;4.50;77.60;;;;;;5026425;28;86438;-45
2022/02/13 08:23:24;;;;;;;;;;;4.50;77.60;;;;;;5026023;28;88427;-46
2022/02/13 08:25:51;;;;;;;;;;;4.50;77.60;;;;;;5025716;28;90045;-45
2022/02/13 08:28:16;;;;;;;;;;;4.50;77.60;;;;;;5025217;28;87799;-45
2022/02/13 08:30:42;;;;;;;;;;;4.50;77.60;;;;;;5025709;28;89827;-43
2022/02/13 08:33:08;;;;;;;;;;;4.40;77.60;;;;;;5025440;28;89961;-47
2022/02/13 08:35:33;;;;;;;;;;;4.40;77.70;;;;;;5028533;28;86795;-47
2022/02/13 08:38:00;;;;;;;;;;;4.40;77.80;;;;;;5025142;28;89413;-45
2022/02/13 08:40:26;;;;;;;;;;;4.40;77.70;;;;;;5025674;28;87150;-44
2022/02/13 08:42:52;;;;;;;;;;;4.40;77.70;;;;;;5024896;28;88952;-45
2022/02/13 08:45:18;;;;;;;;;;;4.40;77.70;;;;;;5025946;28;88806;-46
2022/02/13 08:47:44;;;;;;;;;;;4.40;77.80;;;;;;5025510;28;87105;-44
2022/02/13 08:50:09;;;;;;;;;;;4.40;77.70;;;;;;5025394;28;88680;-45
2022/02/13 08:52:35;;;;;;;;;;;4.40;77.70;;;;;;5024303;28;90346;-44
2022/02/13 08:55:00;;;;;;;;;;;4.40;77.80;;;;;;5028343;28;87192;-45
2022/02/13 08:57:26;;;;;;;;;;;4.40;77.80;;;;;;5024831;28;89439;-44
2022/02/13 08:59:51;;;;;;;;;;;4.40;77.80;;;;;;5025190;28;87095;-42
2022/02/13 09:02:17;;;;;;;;;;;4.40;77.70;;;;;;5025195;28;89457;-42
2022/02/13 09:04:42;;;;;;;;;;;4.40;77.80;;;;;;5025068;28;89732;-44
2022/02/13 09:07:08;;;;;;;;;;;4.40;77.70;;;;;;5025087;28;87151;-46
2022/02/13 09:09:33;;;;;;;;;;;4.40;77.60;;;;;;5025641;28;89266;-42
2022/02/13 09:11:59;;;;;;;;;;;4.40;77.70;;;;;;5024851;28;89394;-42
2022/02/13 09:14:25;;;;;;;;;;;4.40;77.60;;;;;;5024979;28;87057;-44
2022/02/13 09:16:51;;;;;;;;;;;4.40;77.70;;;;;;5027000;28;88774;-42
2022/02/13 09:19:17;;;;;;;;;;;4.40;77.70;;;;;;5024044;28;87067;-42
2022/02/13 09:21:42;;;;;;;;;;;4.40;77.70;;;;;;5025042;28;88802;-46
2022/02/13 09:24:08;;;;;;;;;;;4.40;77.70;;;;;;5024724;28;88474;-46
2022/02/13 09:26:35;;;;;;;;;;;4.40;77.80;;;;;;5024920;28;87244;-44
2022/02/13 09:29:01;;;;;;;;;;;4.40;77.60;;;;;;5024743;28;88795;-44
2022/02/13 09:31:26;;;;;;;;;;;4.40;77.60;;;;;;5024524;28;89326;-43
2022/02/13 09:33:52;;;;;;;;;;;4.40;77.70;;;;;;5025429;28;86393;-43
2022/02/13 09:36:21;;;;;;;;;;;4.40;77.60;;;;;;5024660;28;88191;-46
2022/02/13 09:38:47;;;;;;;;;;;4.40;77.70;;;;;;5027101;28;89812;-43
2022/02/13 09:41:15;;;;;;;;;;;4.40;77.60;;;;;;5024133;28;89205;-43
2022/02/13 09:43:41;;;;;;;;;;;4.40;77.50;;;;;;5023547;28;89557;-44
2022/02/13 09:46:06;;;;;;;;;;;4.40;77.50;;;;;;5024731;28;87124;-45
2022/02/13 09:48:35;;;;;;;;;;;4.40;77.60;;;;;;5024645;28;88618;-44
2022/02/13 09:51:02;;;;;;;;;;;4.40;77.60;;;;;;5024157;28;89786;-44
2022/02/13 09:53:34;;;;;;;;;;;4.40;77.50;;;;;;5024455;28;87124;-46
2022/02/13 09:56:03;;;;;;;;;;;4.40;77.50;;;;;;5024545;28;87978;-45
2022/02/13 09:58:30;;;;;;;;;;;4.40;77.50;;;;;;5024460;28;88791;-47
2022/02/13 10:00:57;;;;;;;;;;;4.40;77.50;;;;;;5027358;28;87073;-43
2022/02/13 10:03:26;;;;;;;;;;;4.40;77.50;;;;;;5023891;28;89782;-44
2022/02/13 10:06:00;;;;;;;;;;;4.50;77.60;;;;;;5023747;28;88076;-42
2022/02/13 10:08:36;;;;;;;;;;;4.40;77.50;;;;;;5024228;28;89656;-46
2022/02/13 10:11:23;;;;;;;;;;;4.50;77.60;;;;;;5024003;28;88588;-43
2022/02/13 10:13:52;;;;;;;;;;;4.50;77.60;;;;;;5024319;28;86889;-42
2022/02/13 10:16:19;;;;;;;;;;;4.50;77.60;;;;;;5024004;28;88806;-43
2022/02/13 10:18:45;;;;;;;;;;;4.40;77.50;;;;;;5023618;28;89593;-43
2022/02/13 10:21:11;;;;;;;;;;;4.50;77.60;;;;;;5023742;28;87003;-45
2022/02/13 10:23:37;;;;;;;;;;;4.50;77.60;;;;;;5027084;28;88847;-43
2022/02/13 10:26:17;;;;;;;;;;;4.50;77.60;;;;;;5023977;28;87239;-42
2022/02/13 10:28:52;;;;;;;;;;;4.50;77.60;;;;;;5024208;28;88466;-42
2022/02/13 10:31:20;;;;;;;;;;;4.50;77.70;;;;;;5022946;28;89663;-44
2022/02/13 10:33:55;;;;;;;;;;;4.50;77.60;;;;;;5023625;28;87064;-44
2022/02/13 10:36:21;;;;;;;;;;;4.50;77.60;;;;;;5023984;28;89201;-44
2022/02/13 10:38:46;;;;;;;;;;;4.50;77.60;;;;;;5023266;28;89549;-44
2022/02/13 10:41:16;;;;;;;;;;;4.50;77.60;;;;;;5023623;28;87113;-47
2022/02/13 10:43:56;;;;;;;;;;;4.50;77.50;;;;;;5025799;28;88582;-46
2022/02/13 10:46:23;;;;;;;;;;;4.50;77.50;;;;;;5023649;28;86885;-44
2022/02/13 10:48:49;;;;;;;;;;;4.50;77.60;;;;;;5024414;28;89030;-47
2022/02/13 10:51:14;;;;;;;;;;;4.50;77.70;;;;;;5023384;28;89772;-47
2022/02/13 10:53:40;;;;;;;;;;;4.50;77.70;;;;;;5023701;28;87159;-48
2022/02/13 10:56:06;;;;;;;;;;;4.50;77.80;;;;;;5022958;28;88776;-45
2022/02/13 10:58:32;;;;;;;;;;;4.50;77.80;;;;;;5023088;28;89394;-46
2022/02/13 11:00:59;;;;;;;;;;;4.50;78.00;;;;;;5023202;28;87122;-45
2022/02/13 11:03:25;;;;;;;;;;;4.50;78.00;;;;;;5023342;28;89044;-47
2022/02/13 11:05:51;;;;;;;;;;;4.50;78.00;;;;;;5026193;28;88789;-47
2022/02/13 11:08:17;;;;;;;;;;;4.50;78.00;;;;;;5023349;28;88971;-46
2022/02/13 11:10:44;;;;;;;;;;;4.40;78.00;;;;;;5023188;28;89391;-46
2022/02/13 11:13:11;;;;;;;;;;;4.50;78.10;;;;;;5023879;28;86374;-45
2022/02/13 11:15:37;;;;;;;;;;;4.40;78.10;;;;;;5023131;28;87162;-46
2022/02/13 11:18:14;;;;;;;;;;;4.40;78.10;;;;;;5022881;28;89787;-46
2022/02/13 11:20:41;;;;;;;;;;;4.40;78.30;;;;;;5022623;28;87917;-44
2022/02/13 11:23:23;;;;;;;;;;;4.40;78.40;;;;;;5023156;28;89682;-47
2022/02/13 11:25:58;;;;;;;;;;;4.40;78.30;;;;;;5022787;28;89546;-44
2022/02/13 11:31:26;;;;;;;;;;;4.40;78.40;;;;;;5023082;28;87288;-48
2022/02/13 11:33:52;;;;;;;;;;;4.40;78.30;;;;;;5023069;28;87167;-48
2022/02/13 11:36:17;;;;;;;;;;;4.40;78.30;;;;;;5022759;28;88812;-46
2022/02/13 11:38:46;;;;;;;;;;;4.50;78.40;;;;;;5023198;28;88986;-45
2022/02/13 11:41:12;;;;;;;;;;;4.50;78.20;;;;;;5022884;28;87137;-48
2022/02/13 11:43:44;;;;;;;;;;;4.50;78.30;;;;;;5026096;28;89235;-44
2022/02/13 11:46:09;;;;;;;;;;;4.50;78.40;;;;;;5025439;28;90327;-49
2022/02/13 11:48:39;;;;;;;;;;;4.50;78.40;;;;;;5026450;28;87216;-46
2022/02/13 11:51:10;;;;;;;;;;;4.50;78.50;;;;;;5028797;28;88600;-47
2022/02/13 11:53:37;;;;;;;;;;;4.50;78.70;;;;;;5026504;28;87103;-45
2022/02/13 11:56:20;;;;;;;;;;;4.40;78.70;;;;;;5026239;28;88642;-45
2022/02/13 11:58:46;;;;;;;;;;;4.50;78.40;;;;;;5025867;28;89245;-50
2022/02/13 12:01:30;;;;;;;;;;;4.50;78.50;;;;;;5026157;28;87205;-44
2022/02/13 12:03:55;;;;;;;;;;;4.50;78.50;;;;;;5026722;28;88729;-47
2022/02/13 12:06:21;;;;;;;;;;;4.50;78.50;;;;;;5025703;28;89416;-46
2022/02/13 12:08:46;;;;;;;;;;;4.50;78.50;;;;;;5026026;28;87239;-44
2022/02/13 12:11:12;;;;;;;;;;;4.50;78.50;;;;;;5025452;28;88044;-44
2022/02/13 12:13:38;;;;;;;;;;;4.50;78.50;;;;;;5028693;28;88375;-42
2022/02/13 12:16:05;;;;;;;;;;;4.50;78.50;;;;;;5025926;28;88696;-45
2022/02/13 12:18:31;;;;;;;;;;;4.50;78.50;;;;;;5025617;28;89169;-44
2022/02/13 12:20:58;;;;;;;;;;;4.50;78.60;;;;;;5025973;28;86791;-46
2022/02/13 12:23:23;;;;;;;;;;;4.50;78.70;;;;;;5025824;28;87743;-41
2022/02/13 12:25:49;;;;;;;;;;;4.50;78.80;;;;;;5025528;28;89866;-43
2022/02/13 12:28:19;;;;;;;;;;;4.50;78.90;;;;;;5026438;28;86409;-49
2022/02/13 12:30:50;;;;;;;;;;;4.50;78.80;;;;;;5025741;28;87956;-47
2022/02/13 12:33:18;;;;;;;;;;;4.50;78.80;;;;;;5025473;28;89405;-45
2022/02/13 12:35:45;;;;;;;;;;;4.50;78.90;;;;;;5027990;28;88053;-46
2022/02/13 12:38:11;;;;;;;;;;;4.50;79.00;;;;;;5025278;28;89607;-47
2022/02/13 12:40:44;;;;;;;;;;;4.50;79.00;;;;;;5025669;28;87194;-46
2022/02/13 12:43:17;;;;;;;;;;;4.50;79.00;;;;;;5025325;28;87487;-42
2022/02/13 12:45:44;;;;;;;;;;;4.50;79.20;;;;;;5025301;28;89223;-47
2022/02/13 12:48:10;;;;;;;;;;;4.50;79.00;;;;;;5025431;28;86968;-44
2022/02/13 12:50:38;;;;;;;;;;;4.50;78.90;;;;;;5025413;28;88585;-46
2022/02/13 12:53:04;;;;;;;;;;;4.50;79.00;;;;;;5024654;28;88787;-46
2022/02/13 12:55:31;;;;;;;;;;;4.50;78.90;;;;;;5028363;28;87178;-45
2022/02/13 12:57:58;;;;;;;;;;;4.50;79.00;;;;;;5024638;28;89575;-46
2022/02/13 13:00:26;;;;;;;;;;;4.50;79.00;;;;;;5024582;28;87975;-46
2022/02/13 13:02:58;;;;;;;;;;;4.50;79.00;;;;;;5025322;28;89645;-46
2022/02/13 13:05:31;;;;;;;;;;;4.50;78.90;;;;;;5025161;28;89365;-43
2022/02/13 13:08:15;;;;;;;;;;;4.50;78.90;;;;;;5025118;28;87156;-42
2022/02/13 13:10:50;;;;;;;;;;;4.50;78.90;;;;;;5025109;28;88842;-48
2022/02/13 13:13:17;;;;;;;;;;;4.50;79.00;;;;;;5024627;28;89380;-44
2022/02/13 13:15:53;;;;;;;;;;;4.60;79.00;;;;;;5025079;28;87222;-45
2022/02/13 13:18:37;;;;;;;;;;;4.50;78.90;;;;;;5028096;28;89212;-48
2022/02/13 13:21:16;;;;;;;;;;;4.60;79.10;;;;;;5024804;28;87206;-48
2022/02/13 13:24:00;;;;;;;;;;;4.60;79.20;;;;;;5025199;28;88945;-47
2022/02/13 13:26:29;;;;;;;;;;;4.60;79.10;;;;;;5023837;28;90584;-46
2022/02/13 13:28:55;;;;;;;;;;;4.60;79.00;;;;;;5024994;28;86859;-44
2022/02/13 13:31:21;;;;;;;;;;;4.60;79.00;;;;;;5024730;28;88866;-48
2022/02/13 13:33:48;;;;;;;;;;;4.60;79.00;;;;;;5024484;28;89958;-48
2022/02/13 13:36:25;;;;;;;;;;;4.60;79.00;;;;;;5024934;28;87104;-46
2022/02/13 13:38:51;;;;;;;;;;;4.60;79.00;;;;;;5024848;28;88015;-47
2022/02/13 13:41:16;;;;;;;;;;;4.60;78.90;;;;;;5027112;28;89500;-45
2022/02/13 13:43:42;;;;;;;;;;;4.60;79.00;;;;;;5024514;28;89398;-47
2022/02/13 13:46:14;;;;;;;;;;;4.60;78.90;;;;;;5024014;28;89453;-45
2022/02/13 13:48:40;;;;;;;;;;;4.60;78.90;;;;;;5024640;28;87107;-45
2022/02/13 13:51:06;;;;;;;;;;;4.60;79.10;;;;;;5023830;28;88914;-46
2022/02/13 13:53:31;;;;;;;;;;;4.60;79.00;;;;;;5024176;28;89618;-45
2022/02/13 13:55:57;;;;;;;;;;;4.60;79.10;;;;;;5024418;28;87068;-48
2022/02/13 13:58:22;;;;;;;;;;;4.60;79.20;;;;;;5024362;28;88768;-45
2022/02/13 14:00:48;;;;;;;;;;;4.60;79.10;;;;;;5024009;28;89275;-46
2022/02/13 14:03:14;;;;;;;;;;;4.60;78.90;;;;;;5027264;28;87057;-47
2022/02/13 14:05:43;;;;;;;;;;;4.60;79.00;;;;;;5023767;28;89590;-45
2022/02/13 14:08:09;;;;;;;;;;;4.60;78.90;;;;;;5024701;28;86410;-48
2022/02/13 14:10:36;;;;;;;;;;;4.60;78.80;;;;;;5024367;28;87969;-45
2022/02/13 14:13:02;;;;;;;;;;;4.70;78.90;;;;;;5023968;28;89322;-45
2022/02/13 14:15:28;;;;;;;;;;;4.60;79.00;;;;;;5023457;28;88015;-48
2022/02/13 14:17:54;;;;;;;;;;;4.60;78.90;;;;;;5024150;28;90145;-47
2022/02/13 14:20:20;;;;;;;;;;;4.60;78.80;;;;;;5023565;28;89597;-46
2022/02/13 14:22:45;;;;;;;;;;;4.60;78.90;;;;;;5024083;28;86951;-48
2022/02/13 14:25:11;;;;;;;;;;;4.70;78.90;;;;;;5026696;28;89059;-46
2022/02/13 14:27:37;;;;;;;;;;;4.60;78.90;;;;;;5023888;28;87135;-47
2022/02/13 14:30:03;;;;;;;;;;;4.60;78.90;;;;;;5023661;28;88736;-46